sensor_id;sensor_type;location;lat;lon;timestamp;pressure;altitude;pressure_sealevel;temperature;humidity
60240;BME280;46102;39.012;-7.064;2023-09-19T00:00:57;98774.31;;;19.00;61.19
60240;BME280;46102;39.012;-7.064;2023-09-19T00:02:58;98770.38;;;19.01;61.23
60240;BME280;46102;39.012;-7.064;2023-09-19T00:05:02;98770.81;;;19.03;61.28
60240;BME280;46102;39.012;-7.064;2023-09-19T00:07:03;98768.84;;;19.03;61.28
60240;BME280;46102;39.012;-7.064;2023-09-19T00:09:04;98765.25;;;19.03;61.55
60240;BME280;46102;39.012;-7.064;2023-09-19T00:11:05;98767.66;;;19.04;61.58
60240;BME280;46102;39.012;-7.064;2023-09-19T00:13:06;98769.63;;;19.04;61.64
60240;BME280;46102;39.012;-7.064;2023-09-19T00:15:08;98771.25;;;19.05;61.74
60240;BME280;46102;39.012;-7.064;2023-09-19T00:17:11;98764.09;;;19.04;61.75
60240;BME280;46102;39.012;-7.064;2023-09-19T00:19:12;98768.84;;;19.03;61.92
60240;BME280;46102;39.012;-7.064;2023-09-19T00:21:13;98770.81;;;19.03;62.03
60240;BME280;46102;39.012;-7.064;2023-09-19T00:23:15;98770.44;;;19.04;62.17
60240;BME280;46102;39.012;-7.064;2023-09-19T00:25:16;98772.06;;;19.05;62.18
60240;BME280;46102;39.012;-7.064;2023-09-19T00:27:17;98769.63;;;19.04;62.40
60240;BME280;46102;39.012;-7.064;2023-09-19T00:29:19;98771.63;;;19.03;62.39
60240;BME280;46102;39.012;-7.064;2023-09-19T00:31:20;98766.41;;;19.02;62.43
60240;BME280;46102;39.012;-7.064;2023-09-19T00:33:25;98772.34;;;19.00;62.63
60240;BME280;46102;39.012;-7.064;2023-09-19T00:35:26;98771.94;;;18.98;62.93
60240;BME280;46102;39.012;-7.064;2023-09-19T00:37:28;98769.44;;;18.93;63.03
60240;BME280;46102;39.012;-7.064;2023-09-19T00:39:28;98768.16;;;18.87;63.08
60240;BME280;46102;39.012;-7.064;2023-09-19T00:41:33;98770.31;;;18.78;63.02
60240;BME280;46102;39.012;-7.064;2023-09-19T00:43:36;98769.44;;;18.73;63.06
60240;BME280;46102;39.012;-7.064;2023-09-19T00:45:37;98771.34;;;18.69;63.03
60240;BME280;46102;39.012;-7.064;2023-09-19T00:47:45;98769.22;;;18.63;63.12
60240;BME280;46102;39.012;-7.064;2023-09-19T00:49:47;98763.22;;;18.61;62.90
60240;BME280;46102;39.012;-7.064;2023-09-19T00:51:50;98763.06;;;18.54;62.75
60240;BME280;46102;39.012;-7.064;2023-09-19T00:53:52;98766.13;;;18.48;62.79
60240;BME280;46102;39.012;-7.064;2023-09-19T00:55:53;98761.66;;;18.44;62.79
60240;BME280;46102;39.012;-7.064;2023-09-19T00:57:56;98759.53;;;18.37;62.83
60240;BME280;46102;39.012;-7.064;2023-09-19T00:59:57;98762.97;;;18.30;62.92
60240;BME280;46102;39.012;-7.064;2023-09-19T01:01:58;98766.84;;;18.26;62.82
60240;BME280;46102;39.012;-7.064;2023-09-19T01:04:01;98760.31;;;18.18;62.88
60240;BME280;46102;39.012;-7.064;2023-09-19T01:06:02;98759.88;;;18.16;62.76
60240;BME280;46102;39.012;-7.064;2023-09-19T01:08:04;98755.50;;;18.15;62.73
60240;BME280;46102;39.012;-7.064;2023-09-19T01:10:06;98765.38;;;18.13;62.65
60240;BME280;46102;39.012;-7.064;2023-09-19T01:12:11;98755.31;;;18.08;62.79
60240;BME280;46102;39.012;-7.064;2023-09-19T01:16:53;98756.41;;;18.03;63.05
60240;BME280;46102;39.012;-7.064;2023-09-19T01:19:14;98762.34;;;18.02;63.01
60240;BME280;46102;39.012;-7.064;2023-09-19T01:28:32;98749.75;;;17.88;63.29
60240;BME280;46102;39.012;-7.064;2023-09-19T01:30:40;98752.88;;;17.87;63.25
60240;BME280;46102;39.012;-7.064;2023-09-19T01:32:43;98751.19;;;17.82;63.20
60240;BME280;46102;39.012;-7.064;2023-09-19T01:34:48;98751.50;;;17.81;63.23
60240;BME280;46102;39.012;-7.064;2023-09-19T01:36:50;98757.91;;;17.81;63.15
60240;BME280;46102;39.012;-7.064;2023-09-19T01:38:52;98756.75;;;17.82;63.14
60240;BME280;46102;39.012;-7.064;2023-09-19T01:41:03;98750.03;;;17.83;63.09
60240;BME280;46102;39.012;-7.064;2023-09-19T01:43:20;98750.84;;;17.84;62.97
60240;BME280;46102;39.012;-7.064;2023-09-19T01:45:32;98748.84;;;17.84;62.88
60240;BME280;46102;39.012;-7.064;2023-09-19T01:47:38;98750.44;;;17.85;62.89
60240;BME280;46102;39.012;-7.064;2023-09-19T01:49:55;98737.84;;;17.88;62.70
60240;BME280;46102;39.012;-7.064;2023-09-19T01:52:05;98740.97;;;17.86;62.79
60240;BME280;46102;39.012;-7.064;2023-09-19T01:54:11;98747.31;;;17.87;62.97
60240;BME280;46102;39.012;-7.064;2023-09-19T01:56:17;98753.59;;;17.84;62.95
60240;BME280;46102;39.012;-7.064;2023-09-19T01:58:44;98746.44;;;17.83;62.99
60240;BME280;46102;39.012;-7.064;2023-09-19T02:00:48;98738.81;;;17.80;62.99
60240;BME280;46102;39.012;-7.064;2023-09-19T02:02:53;98740.69;;;17.76;63.13
60240;BME280;46102;39.012;-7.064;2023-09-19T02:04:56;98739.09;;;17.75;63.10
60240;BME280;46102;39.012;-7.064;2023-09-19T02:07:01;98728.06;;;17.78;63.12
60240;BME280;46102;39.012;-7.064;2023-09-19T02:09:01;98731.66;;;17.79;63.09
60240;BME280;46102;39.012;-7.064;2023-09-19T02:11:04;98734.44;;;17.79;63.10
60240;BME280;46102;39.012;-7.064;2023-09-19T02:13:05;98735.59;;;17.78;63.38
60240;BME280;46102;39.012;-7.064;2023-09-19T02:15:06;98736.38;;;17.78;63.51
60240;BME280;46102;39.012;-7.064;2023-09-19T02:17:07;98734.34;;;17.75;63.54
60240;BME280;46102;39.012;-7.064;2023-09-19T02:19:10;98721.63;;;17.74;63.83
60240;BME280;46102;39.012;-7.064;2023-09-19T02:21:11;98728.00;;;17.75;63.91
60240;BME280;46102;39.012;-7.064;2023-09-19T02:23:13;98715.38;;;17.77;63.85
60240;BME280;46102;39.012;-7.064;2023-09-19T02:25:14;98728.91;;;17.79;63.85
60240;BME280;46102;39.012;-7.064;2023-09-19T02:27:14;98718.16;;;17.77;64.08
60240;BME280;46102;39.012;-7.064;2023-09-19T02:29:16;98716.97;;;17.78;63.95
60240;BME280;46102;39.012;-7.064;2023-09-19T02:31:17;98718.59;;;17.79;64.02
60240;BME280;46102;39.012;-7.064;2023-09-19T02:33:18;98714.63;;;17.80;64.10
60240;BME280;46102;39.012;-7.064;2023-09-19T02:35:19;98709.88;;;17.81;63.91
60240;BME280;46102;39.012;-7.064;2023-09-19T02:37:20;98707.97;;;17.81;64.15
60240;BME280;46102;39.012;-7.064;2023-09-19T02:39:21;98709.09;;;17.80;64.14
60240;BME280;46102;39.012;-7.064;2023-09-19T02:41:23;98707.97;;;17.81;64.14
60240;BME280;46102;39.012;-7.064;2023-09-19T02:43:24;98701.56;;;17.81;64.36
60240;BME280;46102;39.012;-7.064;2023-09-19T02:45:25;98704.47;;;17.84;64.29
60240;BME280;46102;39.012;-7.064;2023-09-19T02:47:26;98700.16;;;17.87;64.24
60240;BME280;46102;39.012;-7.064;2023-09-19T02:49:29;98693.72;;;17.83;64.33
60240;BME280;46102;39.012;-7.064;2023-09-19T02:51:30;98690.94;;;17.83;64.26
60240;BME280;46102;39.012;-7.064;2023-09-19T02:53:31;98686.22;;;17.83;64.19
60240;BME280;46102;39.012;-7.064;2023-09-19T02:55:32;98684.59;;;17.82;64.23
60240;BME280;46102;39.012;-7.064;2023-09-19T02:57:33;98683.44;;;17.83;64.13
60240;BME280;46102;39.012;-7.064;2023-09-19T02:59:35;98680.22;;;17.81;64.29
60240;BME280;46102;39.012;-7.064;2023-09-19T03:01:37;98682.13;;;17.81;64.31
60240;BME280;46102;39.012;-7.064;2023-09-19T03:03:38;98675.34;;;17.78;64.38
60240;BME280;46102;39.012;-7.064;2023-09-19T03:05:41;98682.44;;;17.76;64.64
60240;BME280;46102;39.012;-7.064;2023-09-19T03:07:48;98668.50;;;17.72;64.74
60240;BME280;46102;39.012;-7.064;2023-09-19T03:09:51;98671.63;;;17.71;64.80
60240;BME280;46102;39.012;-7.064;2023-09-19T03:11:53;98675.94;;;17.68;65.01
60240;BME280;46102;39.012;-7.064;2023-09-19T03:13:55;98676.72;;;17.68;65.25
60240;BME280;46102;39.012;-7.064;2023-09-19T03:15:57;98668.75;;;17.67;65.12
60240;BME280;46102;39.012;-7.064;2023-09-19T03:18:01;98673.94;;;17.68;65.17
60240;BME280;46102;39.012;-7.064;2023-09-19T03:20:02;98675.47;;;17.66;65.58
60240;BME280;46102;39.012;-7.064;2023-09-19T03:22:09;98671.09;;;17.65;65.34
60240;BME280;46102;39.012;-7.064;2023-09-19T03:24:10;98663.50;;;17.62;65.59
60240;BME280;46102;39.012;-7.064;2023-09-19T03:26:13;98670.22;;;17.61;65.43
60240;BME280;46102;39.012;-7.064;2023-09-19T03:28:16;98667.00;;;17.59;65.62
60240;BME280;46102;39.012;-7.064;2023-09-19T03:30:18;98658.25;;;17.57;65.84
60240;BME280;46102;39.012;-7.064;2023-09-19T03:32:19;98658.59;;;17.55;65.88
60240;BME280;46102;39.012;-7.064;2023-09-19T03:34:21;98656.56;;;17.52;65.97
60240;BME280;46102;39.012;-7.064;2023-09-19T03:36:22;98660.03;;;17.49;66.06
60240;BME280;46102;39.012;-7.064;2023-09-19T03:38:23;98653.22;;;17.46;66.07
60240;BME280;46102;39.012;-7.064;2023-09-19T03:40:24;98652.44;;;17.46;66.01
60240;BME280;46102;39.012;-7.064;2023-09-19T03:42:26;98657.19;;;17.45;66.25
60240;BME280;46102;39.012;-7.064;2023-09-19T03:44:28;98656.34;;;17.45;65.96
60240;BME280;46102;39.012;-7.064;2023-09-19T03:46:29;98655.56;;;17.44;66.12
60240;BME280;46102;39.012;-7.064;2023-09-19T03:48:31;98648.41;;;17.43;66.13
60240;BME280;46102;39.012;-7.064;2023-09-19T03:50:31;98645.28;;;17.45;66.14
60240;BME280;46102;39.012;-7.064;2023-09-19T03:52:34;98647.19;;;17.41;66.46
60240;BME280;46102;39.012;-7.064;2023-09-19T03:54:35;98652.19;;;17.35;66.82
60240;BME280;46102;39.012;-7.064;2023-09-19T03:56:36;98657.28;;;17.33;66.96
60240;BME280;46102;39.012;-7.064;2023-09-19T03:58:36;98656.13;;;17.34;67.02
60240;BME280;46102;39.012;-7.064;2023-09-19T04:00:40;98645.03;;;17.34;67.05
60240;BME280;46102;39.012;-7.064;2023-09-19T04:02:40;98652.53;;;17.34;66.96
60240;BME280;46102;39.012;-7.064;2023-09-19T04:04:41;98651.28;;;17.31;67.02
60240;BME280;46102;39.012;-7.064;2023-09-19T04:06:42;98647.19;;;17.25;67.33
60240;BME280;46102;39.012;-7.064;2023-09-19T04:08:43;98647.56;;;17.23;67.65
60240;BME280;46102;39.012;-7.064;2023-09-19T04:10:46;98645.94;;;17.22;67.72
60240;BME280;46102;39.012;-7.064;2023-09-19T04:12:56;98639.88;;;17.17;67.86
60240;BME280;46102;39.012;-7.064;2023-09-19T04:14:57;98642.19;;;17.15;67.85
60240;BME280;46102;39.012;-7.064;2023-09-19T04:16:57;98638.16;;;17.12;67.92
60240;BME280;46102;39.012;-7.064;2023-09-19T04:18:58;98637.72;;;17.10;68.10
60240;BME280;46102;39.012;-7.064;2023-09-19T04:20:59;98639.25;;;17.08;68.18
60240;BME280;46102;39.012;-7.064;2023-09-19T04:23:04;98633.25;;;17.05;68.28
60240;BME280;46102;39.012;-7.064;2023-09-19T04:25:06;98631.38;;;17.10;68.07
60240;BME280;46102;39.012;-7.064;2023-09-19T04:27:07;98637.81;;;17.14;68.04
60240;BME280;46102;39.012;-7.064;2023-09-19T04:29:10;98638.97;;;17.13;68.02
60240;BME280;46102;39.012;-7.064;2023-09-19T04:31:14;98635.84;;;17.14;67.95
60240;BME280;46102;39.012;-7.064;2023-09-19T04:33:14;98640.22;;;17.15;68.06
60240;BME280;46102;39.012;-7.064;2023-09-19T04:35:15;98633.97;;;17.18;67.81
60240;BME280;46102;39.012;-7.064;2023-09-19T04:37:16;98638.34;;;17.19;67.90
60240;BME280;46102;39.012;-7.064;2023-09-19T04:39:17;98629.38;;;17.26;67.51
60240;BME280;46102;39.012;-7.064;2023-09-19T04:41:18;98629.84;;;17.28;67.41
60240;BME280;46102;39.012;-7.064;2023-09-19T04:43:19;98628.75;;;17.33;67.22
60240;BME280;46102;39.012;-7.064;2023-09-19T04:45:19;98628.47;;;17.38;67.30
60240;BME280;46102;39.012;-7.064;2023-09-19T04:47:20;98627.31;;;17.39;67.14
60240;BME280;46102;39.012;-7.064;2023-09-19T04:49:22;98627.03;;;17.44;66.64
60240;BME280;46102;39.012;-7.064;2023-09-19T04:51:23;98636.94;;;17.45;66.88
60240;BME280;46102;39.012;-7.064;2023-09-19T04:53:24;98627.94;;;17.48;66.88
60240;BME280;46102;39.012;-7.064;2023-09-19T04:55:24;98629.47;;;17.45;66.92
60240;BME280;46102;39.012;-7.064;2023-09-19T04:57:26;98637.34;;;17.43;66.88
60240;BME280;46102;39.012;-7.064;2023-09-19T04:59:28;98632.47;;;17.40;67.12
60240;BME280;46102;39.012;-7.064;2023-09-19T05:01:29;98628.47;;;17.38;66.92
60240;BME280;46102;39.012;-7.064;2023-09-19T05:03:30;98618.91;;;17.35;66.98
60240;BME280;46102;39.012;-7.064;2023-09-19T05:05:31;98626.88;;;17.37;66.73
60240;BME280;46102;39.012;-7.064;2023-09-19T05:07:31;98628.47;;;17.38;66.66
60240;BME280;46102;39.012;-7.064;2023-09-19T05:09:32;98634.00;;;17.38;66.70
60240;BME280;46102;39.012;-7.064;2023-09-19T05:11:34;98631.97;;;17.35;66.65
60240;BME280;46102;39.012;-7.064;2023-09-19T05:13:37;98628.84;;;17.36;66.49
60240;BME280;46102;39.012;-7.064;2023-09-19T05:15:37;98630.53;;;17.41;66.38
60240;BME280;46102;39.012;-7.064;2023-09-19T05:17:39;98631.41;;;17.45;66.24
60240;BME280;46102;39.012;-7.064;2023-09-19T05:19:40;98632.69;;;17.47;65.42
60240;BME280;46102;39.012;-7.064;2023-09-19T05:21:41;98637.03;;;17.48;64.55
60240;BME280;46102;39.012;-7.064;2023-09-19T05:23:41;98633.13;;;17.50;64.10
60240;BME280;46102;39.012;-7.064;2023-09-19T05:25:42;98637.84;;;17.49;63.59
60240;BME280;46102;39.012;-7.064;2023-09-19T05:27:43;98637.50;;;17.51;63.18
60240;BME280;46102;39.012;-7.064;2023-09-19T05:29:44;98633.19;;;17.53;62.59
60240;BME280;46102;39.012;-7.064;2023-09-19T05:31:45;98635.59;;;17.55;62.21
60240;BME280;46102;39.012;-7.064;2023-09-19T05:33:45;98639.19;;;17.55;61.65
60240;BME280;46102;39.012;-7.064;2023-09-19T05:35:49;98638.44;;;17.58;61.70
60240;BME280;46102;39.012;-7.064;2023-09-19T05:37:50;98634.88;;;17.58;61.54
60240;BME280;46102;39.012;-7.064;2023-09-19T05:39:51;98644.38;;;17.57;61.65
60240;BME280;46102;39.012;-7.064;2023-09-19T05:41:54;98632.47;;;17.56;61.71
60240;BME280;46102;39.012;-7.064;2023-09-19T05:43:55;98644.00;;;17.58;61.99
60240;BME280;46102;39.012;-7.064;2023-09-19T05:45:56;98644.38;;;17.57;62.07
60240;BME280;46102;39.012;-7.064;2023-09-19T05:48:07;98644.38;;;17.57;62.10
60240;BME280;46102;39.012;-7.064;2023-09-19T05:50:09;98645.53;;;17.56;61.99
60240;BME280;46102;39.012;-7.064;2023-09-19T05:52:10;98645.91;;;17.54;62.09
60240;BME280;46102;39.012;-7.064;2023-09-19T05:54:10;98640.72;;;17.53;62.03
60240;BME280;46102;39.012;-7.064;2023-09-19T05:56:11;98652.94;;;17.52;62.06
60240;BME280;46102;39.012;-7.064;2023-09-19T05:58:14;98652.16;;;17.51;61.65
60240;BME280;46102;39.012;-7.064;2023-09-19T06:00:14;98654.13;;;17.51;61.41
60240;BME280;46102;39.012;-7.064;2023-09-19T06:02:18;98653.34;;;17.50;61.25
60240;BME280;46102;39.012;-7.064;2023-09-19T06:04:20;98660.47;;;17.51;61.33
60240;BME280;46102;39.012;-7.064;2023-09-19T06:06:21;98655.72;;;17.52;61.08
60240;BME280;46102;39.012;-7.064;2023-09-19T06:08:22;98658.16;;;17.53;61.00
60240;BME280;46102;39.012;-7.064;2023-09-19T06:10:23;98664.50;;;17.54;61.32
60240;BME280;46102;39.012;-7.064;2023-09-19T06:12:25;98665.22;;;17.51;62.08
60240;BME280;46102;39.012;-7.064;2023-09-19T06:14:26;98667.44;;;17.45;62.91
60240;BME280;46102;39.012;-7.064;2023-09-19T06:16:28;98677.22;;;17.39;63.58
60240;BME280;46102;39.012;-7.064;2023-09-19T06:18:29;98666.78;;;17.32;63.32
60240;BME280;46102;39.012;-7.064;2023-09-19T06:20:33;98669.91;;;17.31;62.71
60240;BME280;46102;39.012;-7.064;2023-09-19T06:22:34;98669.09;;;17.30;62.34
60240;BME280;46102;39.012;-7.064;2023-09-19T06:24:35;98673.84;;;17.30;61.69
60240;BME280;46102;39.012;-7.064;2023-09-19T06:26:36;98675.44;;;17.31;61.68
60240;BME280;46102;39.012;-7.064;2023-09-19T06:28:37;98670.63;;;17.27;61.46
60240;BME280;46102;39.012;-7.064;2023-09-19T06:30:38;98677.31;;;17.26;61.32
60240;BME280;46102;39.012;-7.064;2023-09-19T06:32:42;98674.09;;;17.24;61.21
60240;BME280;46102;39.012;-7.064;2023-09-19T06:34:45;98676.78;;;17.21;61.15
60240;BME280;46102;39.012;-7.064;2023-09-19T06:36:46;98678.78;;;17.20;61.18
60240;BME280;46102;39.012;-7.064;2023-09-19T06:38:47;98679.63;;;17.24;60.81
60240;BME280;46102;39.012;-7.064;2023-09-19T06:40:51;98678.16;;;17.27;60.73
60240;BME280;46102;39.012;-7.064;2023-09-19T06:42:53;98680.53;;;17.28;60.85
60240;BME280;46102;39.012;-7.064;2023-09-19T06:44:54;98684.56;;;17.31;60.69
60240;BME280;46102;39.012;-7.064;2023-09-19T06:46:55;98683.03;;;17.34;60.69
60240;BME280;46102;39.012;-7.064;2023-09-19T06:48:55;98686.63;;;17.34;60.53
60240;BME280;46102;39.012;-7.064;2023-09-19T06:50:56;98691.09;;;17.39;60.75
60240;BME280;46102;39.012;-7.064;2023-09-19T06:52:59;98692.00;;;17.43;60.70
60240;BME280;46102;39.012;-7.064;2023-09-19T06:55:01;98689.38;;;17.50;60.25
60240;BME280;46102;39.012;-7.064;2023-09-19T06:57:03;98683.19;;;17.57;60.00
60240;BME280;46102;39.012;-7.064;2023-09-19T06:59:04;98686.88;;;17.61;59.72
60240;BME280;46102;39.012;-7.064;2023-09-19T07:01:07;98687.72;;;17.65;59.29
60240;BME280;46102;39.012;-7.064;2023-09-19T07:03:08;98689.16;;;17.75;59.02
60240;BME280;46102;39.012;-7.064;2023-09-19T07:05:11;98687.81;;;17.84;58.96
60240;BME280;46102;39.012;-7.064;2023-09-19T07:07:12;98694.31;;;17.92;58.49
60240;BME280;46102;39.012;-7.064;2023-09-19T07:09:14;98695.00;;;18.05;58.26
60240;BME280;46102;39.012;-7.064;2023-09-19T07:11:15;98696.13;;;18.20;57.87
60240;BME280;46102;39.012;-7.064;2023-09-19T07:13:16;98695.25;;;18.35;57.38
60240;BME280;46102;39.012;-7.064;2023-09-19T07:15:19;98691.22;;;18.52;56.82
60240;BME280;46102;39.012;-7.064;2023-09-19T07:17:20;98685.56;;;18.68;56.39
60240;BME280;46102;39.012;-7.064;2023-09-19T07:19:21;98690.69;;;18.85;56.00
60240;BME280;46102;39.012;-7.064;2023-09-19T07:21:23;98690.22;;;19.03;55.59
60240;BME280;46102;39.012;-7.064;2023-09-19T07:23:24;98692.53;;;19.24;55.33
60240;BME280;46102;39.012;-7.064;2023-09-19T07:25:27;98692.78;;;19.38;54.70
60240;BME280;46102;39.012;-7.064;2023-09-19T07:27:28;98699.75;;;19.51;54.27
60240;BME280;46102;39.012;-7.064;2023-09-19T07:29:29;98700.28;;;19.61;53.75
60240;BME280;46102;39.012;-7.064;2023-09-19T07:31:30;98699.69;;;19.71;53.63
60240;BME280;46102;39.012;-7.064;2023-09-19T07:33:31;98701.06;;;19.84;53.57
60240;BME280;46102;39.012;-7.064;2023-09-19T07:35:32;98703.69;;;20.00;52.99
60240;BME280;46102;39.012;-7.064;2023-09-19T07:37:34;98702.28;;;20.13;52.53
60240;BME280;46102;39.012;-7.064;2023-09-19T07:39:35;98708.03;;;20.28;52.10
60240;BME280;46102;39.012;-7.064;2023-09-19T07:41:35;98699.44;;;20.40;51.47
60240;BME280;46102;39.012;-7.064;2023-09-19T07:43:37;98703.16;;;20.51;51.60
60240;BME280;46102;39.012;-7.064;2023-09-19T07:45:40;98702.47;;;20.62;51.26
60240;BME280;46102;39.012;-7.064;2023-09-19T07:47:48;98698.59;;;20.70;50.84
60240;BME280;46102;39.012;-7.064;2023-09-19T07:49:49;98691.88;;;20.74;50.31
60240;BME280;46102;39.012;-7.064;2023-09-19T07:51:49;98699.53;;;20.81;50.45
60240;BME280;46102;39.012;-7.064;2023-09-19T07:53:50;98698.03;;;20.91;50.32
60240;BME280;46102;39.012;-7.064;2023-09-19T07:55:51;98704.13;;;21.04;49.95
60240;BME280;46102;39.012;-7.064;2023-09-19T07:57:55;98701.09;;;21.23;49.94
60240;BME280;46102;39.012;-7.064;2023-09-19T07:59:56;98699.25;;;21.38;49.22
60240;BME280;46102;39.012;-7.064;2023-09-19T08:01:57;98700.97;;;21.50;48.67
60240;BME280;46102;39.012;-7.064;2023-09-19T08:03:58;98697.06;;;21.58;48.21
60240;BME280;46102;39.012;-7.064;2023-09-19T08:06:01;98702.31;;;21.67;48.05
60240;BME280;46102;39.012;-7.064;2023-09-19T08:08:01;98700.75;;;21.76;48.20
60240;BME280;46102;39.012;-7.064;2023-09-19T08:10:05;98699.63;;;21.85;47.84
60240;BME280;46102;39.012;-7.064;2023-09-19T08:12:13;98700.47;;;21.92;47.79
60240;BME280;46102;39.012;-7.064;2023-09-19T08:14:15;98702.94;;;22.04;47.67
60240;BME280;46102;39.012;-7.064;2023-09-19T08:16:16;98714.56;;;22.17;47.74
60240;BME280;46102;39.012;-7.064;2023-09-19T08:18:18;98696.72;;;22.29;46.85
60240;BME280;46102;39.012;-7.064;2023-09-19T08:20:19;98697.53;;;22.37;46.72
60240;BME280;46102;39.012;-7.064;2023-09-19T08:22:20;98704.38;;;22.50;46.45
60240;BME280;46102;39.012;-7.064;2023-09-19T08:24:22;98706.81;;;22.66;46.61
60240;BME280;46102;39.012;-7.064;2023-09-19T08:26:23;98713.28;;;22.81;46.52
60240;BME280;46102;39.012;-7.064;2023-09-19T08:28:24;98700.09;;;22.96;46.38
60240;BME280;46102;39.012;-7.064;2023-09-19T08:30:25;98712.16;;;23.14;46.47
60240;BME280;46102;39.012;-7.064;2023-09-19T08:32:28;98705.38;;;23.33;45.76
60240;BME280;46102;39.012;-7.064;2023-09-19T08:34:29;98703.78;;;23.54;45.52
60240;BME280;46102;39.012;-7.064;2023-09-19T08:36:31;98710.97;;;23.80;44.68
60240;BME280;46102;39.012;-7.064;2023-09-19T08:38:34;98709.34;;;23.97;43.64
60240;BME280;46102;39.012;-7.064;2023-09-19T08:40:38;98706.09;;;24.13;42.84
60240;BME280;46102;39.012;-7.064;2023-09-19T08:42:49;98704.47;;;24.22;43.13
60240;BME280;46102;39.012;-7.064;2023-09-19T08:44:55;98708.81;;;24.41;43.38
60240;BME280;46102;39.012;-7.064;2023-09-19T08:47:06;98707.16;;;24.58;42.33
60240;BME280;46102;39.012;-7.064;2023-09-19T08:49:37;98709.94;;;24.65;41.66
60240;BME280;46102;39.012;-7.064;2023-09-19T08:51:43;98709.97;;;24.62;41.81
60240;BME280;46102;39.012;-7.064;2023-09-19T08:55:51;98702.63;;;24.86;41.74
60240;BME280;46102;39.012;-7.064;2023-09-19T08:58:02;98704.56;;;24.96;41.45
60240;BME280;46102;39.012;-7.064;2023-09-19T09:00:05;98704.44;;;25.14;41.28
60240;BME280;46102;39.012;-7.064;2023-09-19T09:02:14;98708.84;;;25.19;40.47
60240;BME280;46102;39.012;-7.064;2023-09-19T09:04:15;98714.00;;;25.24;40.73
60240;BME280;46102;39.012;-7.064;2023-09-19T09:06:17;98708.69;;;25.40;40.61
60240;BME280;46102;39.012;-7.064;2023-09-19T09:08:19;98708.50;;;25.62;40.18
60240;BME280;46102;39.012;-7.064;2023-09-19T09:10:22;98710.75;;;25.77;39.96
60240;BME280;46102;39.012;-7.064;2023-09-19T09:12:24;98713.03;;;25.93;39.71
60240;BME280;46102;39.012;-7.064;2023-09-19T09:14:26;98710.09;;;26.08;39.31
60240;BME280;46102;39.012;-7.064;2023-09-19T09:16:29;98708.72;;;26.23;39.10
60240;BME280;46102;39.012;-7.064;2023-09-19T09:18:30;98715.72;;;26.42;38.29
60240;BME280;46102;39.012;-7.064;2023-09-19T09:20:31;98704.34;;;26.53;37.68
60240;BME280;46102;39.012;-7.064;2023-09-19T09:22:32;98705.84;;;26.65;37.91
60240;BME280;46102;39.012;-7.064;2023-09-19T09:24:33;98703.25;;;26.77;37.89
60240;BME280;46102;39.012;-7.064;2023-09-19T09:26:41;98710.84;;;26.81;38.06
60240;BME280;46102;39.012;-7.064;2023-09-19T09:28:46;98704.16;;;26.98;37.71
60240;BME280;46102;39.012;-7.064;2023-09-19T09:30:49;98707.09;;;27.18;37.01
60240;BME280;46102;39.012;-7.064;2023-09-19T09:33:08;98704.59;;;27.24;36.25
60240;BME280;46102;39.012;-7.064;2023-09-19T09:35:08;98708.53;;;27.30;35.59
60240;BME280;46102;39.012;-7.064;2023-09-19T09:37:17;98702.91;;;27.30;35.68
60240;BME280;46102;39.012;-7.064;2023-09-19T09:39:30;98700.47;;;27.32;35.21
60240;BME280;46102;39.012;-7.064;2023-09-19T09:41:38;98693.94;;;27.38;35.52
60240;BME280;46102;39.012;-7.064;2023-09-19T09:43:40;98693.47;;;27.40;35.37
60240;BME280;46102;39.012;-7.064;2023-09-19T09:45:42;98698.16;;;27.50;35.37
60240;BME280;46102;39.012;-7.064;2023-09-19T09:47:49;98696.31;;;27.64;35.04
60240;BME280;46102;39.012;-7.064;2023-09-19T09:49:59;98693.41;;;27.67;34.07
60240;BME280;46102;39.012;-7.064;2023-09-19T09:52:08;98691.28;;;27.75;34.33
60240;BME280;46102;39.012;-7.064;2023-09-19T09:54:17;98694.59;;;27.93;33.45
60240;BME280;46102;39.012;-7.064;2023-09-19T09:56:22;98696.63;;;27.93;33.85
60240;BME280;46102;39.012;-7.064;2023-09-19T09:58:23;98697.66;;;27.79;33.84
60240;BME280;46102;39.012;-7.064;2023-09-19T10:00:29;98697.34;;;27.73;33.96
60240;BME280;46102;39.012;-7.064;2023-09-19T10:02:42;98698.38;;;27.83;33.99
60240;BME280;46102;39.012;-7.064;2023-09-19T10:04:46;98696.53;;;27.96;33.66
60240;BME280;46102;39.012;-7.064;2023-09-19T10:06:59;98695.19;;;28.05;32.93
60240;BME280;46102;39.012;-7.064;2023-09-19T10:09:08;98691.03;;;28.13;32.71
60240;BME280;46102;39.012;-7.064;2023-09-19T10:11:16;98692.09;;;28.19;32.54
60240;BME280;46102;39.012;-7.064;2023-09-19T10:13:17;98687.03;;;28.10;32.50
60240;BME280;46102;39.012;-7.064;2023-09-19T10:15:27;98690.78;;;28.03;32.49
60240;BME280;46102;39.012;-7.064;2023-09-19T10:17:34;98688.94;;;28.17;32.12
60240;BME280;46102;39.012;-7.064;2023-09-19T10:19:45;98688.06;;;28.40;31.58
60240;BME280;46102;39.012;-7.064;2023-09-19T10:21:47;98690.59;;;28.54;30.91
60240;BME280;46102;39.012;-7.064;2023-09-19T10:23:50;98695.34;;;28.77;30.04
60240;BME280;46102;39.012;-7.064;2023-09-19T10:25:52;98691.31;;;28.95;29.84
60240;BME280;46102;39.012;-7.064;2023-09-19T10:27:54;98690.00;;;28.99;29.82
60240;BME280;46102;39.012;-7.064;2023-09-19T10:29:57;98690.78;;;29.00;29.77
60240;BME280;46102;39.012;-7.064;2023-09-19T10:32:01;98690.88;;;29.16;29.86
60240;BME280;46102;39.012;-7.064;2023-09-19T10:34:06;98690.16;;;29.29;30.18
60240;BME280;46102;39.012;-7.064;2023-09-19T10:36:10;98688.03;;;29.33;30.19
60240;BME280;46102;39.012;-7.064;2023-09-19T10:38:14;98681.94;;;29.51;29.51
60240;BME280;46102;39.012;-7.064;2023-09-19T10:40:16;98683.25;;;29.62;29.63
60240;BME280;46102;39.012;-7.064;2023-09-19T10:42:19;98676.72;;;29.49;29.07
60240;BME280;46102;39.012;-7.064;2023-09-19T10:44:24;98675.59;;;29.46;29.81
60240;BME280;46102;39.012;-7.064;2023-09-19T10:46:29;98679.00;;;29.54;29.02
60240;BME280;46102;39.012;-7.064;2023-09-19T10:48:33;98671.34;;;29.71;29.32
60240;BME280;46102;39.012;-7.064;2023-09-19T10:50:45;98676.19;;;29.87;29.24
60240;BME280;46102;39.012;-7.064;2023-09-19T10:52:46;98670.44;;;29.91;29.12
60240;BME280;46102;39.012;-7.064;2023-09-19T10:54:53;98668.63;;;29.97;28.62